sensor_id;sensor_type;location;lat;lon;timestamp;pressure;altitude;pressure_sealevel;temperature;humidity
16544;BME280;8384;47.996;7.786;2022-09-24T00:01:10;98550.94;;;13.01;91.58
16544;BME280;8384;47.996;7.786;2022-09-24T00:03:37;98540.19;;;13.10;90.47
16544;BME280;8384;47.996;7.786;2022-09-24T00:06:04;98532.59;;;12.92;90.38
16544;BME280;8384;47.996;7.786;2022-09-24T00:08:30;98529.25;;;13.05;89.96
16544;BME280;8384;47.996;7.786;2022-09-24T00:11:00;98516.41;;;12.95;90.17
16544;BME280;8384;47.996;7.786;2022-09-24T00:13:26;98504.69;;;12.84;90.54
16544;BME280;8384;47.996;7.786;2022-09-24T00:15:51;98501.09;;;12.84;90.57
16544;BME280;8384;47.996;7.786;2022-09-24T00:18:18;98510.66;;;12.92;91.24
16544;BME280;8384;47.996;7.786;2022-09-24T00:20:43;98478.94;;;12.75;90.95
16544;BME280;8384;47.996;7.786;2022-09-24T00:23:10;98491.56;;;12.71;91.90
16544;BME280;8384;47.996;7.786;2022-09-24T00:25:43;98521.53;;;12.52;95.17
16544;BME280;8384;47.996;7.786;2022-09-24T00:28:27;98487.38;;;12.18;97.78
16544;BME280;8384;47.996;7.786;2022-09-24T00:30:52;98519.06;;;12.50;97.84
16544;BME280;8384;47.996;7.786;2022-09-24T00:33:18;98524.56;;;12.45;97.41
16544;BME280;8384;47.996;7.786;2022-09-24T00:35:43;98488.47;;;12.17;98.10
16544;BME280;8384;47.996;7.786;2022-09-24T00:38:09;98498.81;;;12.36;98.32
16544;BME280;8384;47.996;7.786;2022-09-24T00:40:36;98508.56;;;12.68;96.75
16544;BME280;8384;47.996;7.786;2022-09-24T00:43:20;98492.13;;;12.63;96.31
16544;BME280;8384;47.996;7.786;2022-09-24T00:45:46;98496.47;;;12.79;95.12
16544;BME280;8384;47.996;7.786;2022-09-24T00:48:11;98500.31;;;12.73;94.84
16544;BME280;8384;47.996;7.786;2022-09-24T00:50:36;98480.16;;;12.48;94.51
16544;BME280;8384;47.996;7.786;2022-09-24T00:53:15;98499.03;;;12.55;95.08
16544;BME280;8384;47.996;7.786;2022-09-24T00:55:44;98490.00;;;12.54;93.87
16544;BME280;8384;47.996;7.786;2022-09-24T00:58:11;98484.75;;;12.58;93.40
16544;BME280;8384;47.996;7.786;2022-09-24T01:00:39;98486.88;;;12.71;91.01
16544;BME280;8384;47.996;7.786;2022-09-24T01:03:12;98498.66;;;12.82;89.64
16544;BME280;8384;47.996;7.786;2022-09-24T01:05:38;98480.84;;;12.74;89.30
16544;BME280;8384;47.996;7.786;2022-09-24T01:08:06;98469.94;;;12.64;89.77
16544;BME280;8384;47.996;7.786;2022-09-24T01:10:50;98474.75;;;12.88;89.00
16544;BME280;8384;47.996;7.786;2022-09-24T01:13:48;98450.41;;;12.76;89.15
16544;BME280;8384;47.996;7.786;2022-09-24T01:16:44;98440.50;;;12.80;88.55
16544;BME280;8384;47.996;7.786;2022-09-24T01:21:53;98469.84;;;12.80;88.49
16544;BME280;8384;47.996;7.786;2022-09-24T01:24:45;98474.75;;;12.88;87.87
16544;BME280;8384;47.996;7.786;2022-09-24T01:27:21;98437.31;;;12.63;87.79
16544;BME280;8384;47.996;7.786;2022-09-24T01:30:03;98477.38;;;13.03;86.64
16544;BME280;8384;47.996;7.786;2022-09-24T01:32:34;98476.31;;;12.99;87.13
16544;BME280;8384;47.996;7.786;2022-09-24T01:35:17;98484.59;;;12.94;87.88
16544;BME280;8384;47.996;7.786;2022-09-24T01:37:48;98460.88;;;12.64;89.26
16544;BME280;8384;47.996;7.786;2022-09-24T01:40:17;98455.66;;;12.67;89.70
16544;BME280;8384;47.996;7.786;2022-09-24T01:42:44;98462.72;;;12.79;90.59
16544;BME280;8384;47.996;7.786;2022-09-24T01:45:10;98456.44;;;12.78;91.17
16544;BME280;8384;47.996;7.786;2022-09-24T01:47:38;98451.88;;;13.03;89.68
16544;BME280;8384;47.996;7.786;2022-09-24T01:50:06;98457.69;;;12.96;89.92
16544;BME280;8384;47.996;7.786;2022-09-24T01:52:39;98466.00;;;12.81;92.55
16544;BME280;8384;47.996;7.786;2022-09-24T01:55:07;98470.44;;;12.71;95.22
16544;BME280;8384;47.996;7.786;2022-09-24T01:57:38;98473.06;;;12.92;93.67
16544;BME280;8384;47.996;7.786;2022-09-24T02:00:11;98471.03;;;12.68;94.42
16544;BME280;8384;47.996;7.786;2022-09-24T02:02:48;98482.25;;;12.67;96.27
16544;BME280;8384;47.996;7.786;2022-09-24T02:05:19;98491.03;;;12.69;96.39
16544;BME280;8384;47.996;7.786;2022-09-24T02:08:08;98485.84;;;12.67;97.50
16544;BME280;8384;47.996;7.786;2022-09-24T02:10:50;98463.38;;;12.60;98.46
16544;BME280;8384;47.996;7.786;2022-09-24T02:13:20;98443.41;;;12.54;99.11
16544;BME280;8384;47.996;7.786;2022-09-24T02:15:51;98453.16;;;12.71;100.00
16544;BME280;8384;47.996;7.786;2022-09-24T02:18:22;98460.47;;;12.91;100.00
16544;BME280;8384;47.996;7.786;2022-09-24T02:20:51;98451.47;;;12.80;100.00
16544;BME280;8384;47.996;7.786;2022-09-24T02:23:18;98462.72;;;12.79;100.00
16544;BME280;8384;47.996;7.786;2022-09-24T02:25:51;98436.91;;;12.85;100.00
16544;BME280;8384;47.996;7.786;2022-09-24T02:28:18;98463.97;;;13.02;100.00
16544;BME280;8384;47.996;7.786;2022-09-24T02:30:48;98466.84;;;12.81;100.00
16544;BME280;8384;47.996;7.786;2022-09-24T02:33:16;98444.34;;;12.84;100.00
16544;BME280;8384;47.996;7.786;2022-09-24T02:36:01;98449.84;;;12.79;100.00
16544;BME280;8384;47.996;7.786;2022-09-24T02:38:26;98422.41;;;12.79;100.00
16544;BME280;8384;47.996;7.786;2022-09-24T02:40:52;98455.22;;;12.95;100.00
16544;BME280;8384;47.996;7.786;2022-09-24T02:43:18;98445.13;;;12.85;100.00
16544;BME280;8384;47.996;7.786;2022-09-24T02:45:43;98461.25;;;12.97;100.00
16544;BME280;8384;47.996;7.786;2022-09-24T02:48:08;98472.19;;;13.02;100.00
16544;BME280;8384;47.996;7.786;2022-09-24T02:50:34;98468.06;;;12.99;100.00
16544;BME280;8384;47.996;7.786;2022-09-24T02:52:59;98465.22;;;12.75;100.00
16544;BME280;8384;47.996;7.786;2022-09-24T02:55:24;98475.34;;;12.80;100.00
16544;BME280;8384;47.996;7.786;2022-09-24T02:57:50;98441.84;;;12.88;100.00
16544;BME280;8384;47.996;7.786;2022-09-24T03:00:15;98461.75;;;13.04;100.00
16544;BME280;8384;47.996;7.786;2022-09-24T03:02:41;98445.88;;;13.01;100.00
16544;BME280;8384;47.996;7.786;2022-09-24T03:05:07;98463.63;;;13.09;100.00
16544;BME280;8384;47.996;7.786;2022-09-24T03:07:33;98461.47;;;13.05;100.00
16544;BME280;8384;47.996;7.786;2022-09-24T03:09:58;98443.72;;;12.93;100.00
16544;BME280;8384;47.996;7.786;2022-09-24T03:12:23;98451.66;;;12.94;100.00
16544;BME280;8384;47.996;7.786;2022-09-24T03:14:48;98444.81;;;12.92;100.00
16544;BME280;8384;47.996;7.786;2022-09-24T03:17:14;98456.63;;;12.92;100.00
16544;BME280;8384;47.996;7.786;2022-09-24T03:19:39;98459.63;;;12.90;100.00
16544;BME280;8384;47.996;7.786;2022-09-24T03:22:05;98438.00;;;12.84;100.00
16544;BME280;8384;47.996;7.786;2022-09-24T03:24:30;98435.22;;;12.94;100.00
16544;BME280;8384;47.996;7.786;2022-09-24T03:26:56;98459.19;;;13.18;100.00
16544;BME280;8384;47.996;7.786;2022-09-24T03:29:21;98456.72;;;13.16;100.00
16544;BME280;8384;47.996;7.786;2022-09-24T03:32:06;98461.63;;;13.19;100.00
16544;BME280;8384;47.996;7.786;2022-09-24T03:34:32;98443.28;;;13.15;100.00
16544;BME280;8384;47.996;7.786;2022-09-24T03:36:57;98428.28;;;13.02;100.00
16544;BME280;8384;47.996;7.786;2022-09-24T03:39:22;98452.31;;;13.20;100.00
16544;BME280;8384;47.996;7.786;2022-09-24T03:41:47;98443.56;;;13.13;100.00
16544;BME280;8384;47.996;7.786;2022-09-24T03:44:13;98420.34;;;13.00;100.00
16544;BME280;8384;47.996;7.786;2022-09-24T03:46:38;98431.91;;;12.97;100.00
16544;BME280;8384;47.996;7.786;2022-09-24T03:49:03;98439.47;;;13.11;100.00
16544;BME280;8384;47.996;7.786;2022-09-24T03:51:28;98431.63;;;12.94;100.00
16544;BME280;8384;47.996;7.786;2022-09-24T03:53:54;98423.69;;;12.92;100.00
16544;BME280;8384;47.996;7.786;2022-09-24T03:56:19;98403.47;;;12.78;100.00
16544;BME280;8384;47.996;7.786;2022-09-24T03:58:44;98433.81;;;12.97;100.00
16544;BME280;8384;47.996;7.786;2022-09-24T04:01:12;98427.34;;;12.82;100.00
16544;BME280;8384;47.996;7.786;2022-09-24T04:03:38;98422.34;;;12.89;100.00
16544;BME280;8384;47.996;7.786;2022-09-24T04:06:05;98420.69;;;12.88;100.00
16544;BME280;8384;47.996;7.786;2022-09-24T04:08:30;98422.81;;;13.02;100.00
16544;BME280;8384;47.996;7.786;2022-09-24T04:10:56;98426.66;;;13.01;100.00
16544;BME280;8384;47.996;7.786;2022-09-24T04:13:22;98423.88;;;13.06;100.00
16544;BME280;8384;47.996;7.786;2022-09-24T04:15:47;98398.28;;;12.76;100.00
16544;BME280;8384;47.996;7.786;2022-09-24T04:18:15;98414.56;;;13.02;99.46
16544;BME280;8384;47.996;7.786;2022-09-24T04:20:40;98405.97;;;12.79;100.00
16544;BME280;8384;47.996;7.786;2022-09-24T04:23:06;98422.97;;;12.76;100.00
16544;BME280;8384;47.996;7.786;2022-09-24T04:25:32;98427.94;;;12.69;100.00
16544;BME280;8384;47.996;7.786;2022-09-24T04:28:00;98399.97;;;12.72;100.00
16544;BME280;8384;47.996;7.786;2022-09-24T04:30:27;98410.78;;;12.93;100.00
16544;BME280;8384;47.996;7.786;2022-09-24T04:32:52;98392.78;;;12.81;100.00
16544;BME280;8384;47.996;7.786;2022-09-24T04:35:22;98407.44;;;13.01;100.00
16544;BME280;8384;47.996;7.786;2022-09-24T04:37:47;98409.00;;;13.12;100.00
16544;BME280;8384;47.996;7.786;2022-09-24T04:40:13;98403.78;;;13.16;100.00
16544;BME280;8384;47.996;7.786;2022-09-24T04:42:41;98405.47;;;13.07;100.00
16544;BME280;8384;47.996;7.786;2022-09-24T04:45:07;98409.31;;;13.05;100.00
16544;BME280;8384;47.996;7.786;2022-09-24T04:47:34;98398.31;;;13.11;100.00
16544;BME280;8384;47.996;7.786;2022-09-24T04:50:00;98388.69;;;13.13;100.00
16544;BME280;8384;47.996;7.786;2022-09-24T04:52:27;98369.69;;;12.87;100.00
16544;BME280;8384;47.996;7.786;2022-09-24T04:54:54;98399.44;;;13.04;99.96
16544;BME280;8384;47.996;7.786;2022-09-24T04:57:19;98396.09;;;13.13;99.30
16544;BME280;8384;47.996;7.786;2022-09-24T04:59:44;98383.03;;;12.99;99.27
16544;BME280;8384;47.996;7.786;2022-09-24T05:02:09;98397.81;;;13.03;99.56
16544;BME280;8384;47.996;7.786;2022-09-24T05:04:35;98403.56;;;13.07;98.97
16544;BME280;8384;47.996;7.786;2022-09-24T05:07:01;98384.19;;;12.93;99.64
16544;BME280;8384;47.996;7.786;2022-09-24T05:09:26;98397.66;;;12.89;100.00
16544;BME280;8384;47.996;7.786;2022-09-24T05:11:52;98414.00;;;13.05;100.00
16544;BME280;8384;47.996;7.786;2022-09-24T05:14:17;98375.50;;;12.81;100.00
16544;BME280;8384;47.996;7.786;2022-09-24T05:16:42;98404.69;;;13.06;100.00
16544;BME280;8384;47.996;7.786;2022-09-24T05:19:08;98391.78;;;13.01;100.00
16544;BME280;8384;47.996;7.786;2022-09-24T05:21:33;98392.13;;;12.95;100.00
16544;BME280;8384;47.996;7.786;2022-09-24T05:23:58;98413.91;;;13.15;100.00
16544;BME280;8384;47.996;7.786;2022-09-24T05:26:23;98393.16;;;13.04;100.00
16544;BME280;8384;47.996;7.786;2022-09-24T05:29:07;98386.38;;;12.96;100.00
16544;BME280;8384;47.996;7.786;2022-09-24T05:31:32;98424.34;;;13.13;100.00
16544;BME280;8384;47.996;7.786;2022-09-24T05:33:58;98413.50;;;12.98;100.00
16544;BME280;8384;47.996;7.786;2022-09-24T05:36:23;98419.00;;;12.98;100.00
16544;BME280;8384;47.996;7.786;2022-09-24T05:38:51;98422.81;;;13.02;100.00
16544;BME280;8384;47.996;7.786;2022-09-24T05:41:16;98415.22;;;12.88;100.00
16544;BME280;8384;47.996;7.786;2022-09-24T05:43:42;98428.31;;;12.97;100.00
16544;BME280;8384;47.996;7.786;2022-09-24T05:46:07;98400.13;;;12.91;100.00
16544;BME280;8384;47.996;7.786;2022-09-24T05:48:32;98410.00;;;12.92;100.00
16544;BME280;8384;47.996;7.786;2022-09-24T05:51:00;98444.47;;;13.03;100.00
16544;BME280;8384;47.996;7.786;2022-09-24T05:53:25;98420.59;;;13.04;100.00
16544;BME280;8384;47.996;7.786;2022-09-24T05:55:50;98407.94;;;13.08;100.00
16544;BME280;8384;47.996;7.786;2022-09-24T05:58:16;98412.94;;;13.01;100.00
16544;BME280;8384;47.996;7.786;2022-09-24T06:00:42;98408.03;;;12.98;100.00
16544;BME280;8384;47.996;7.786;2022-09-24T06:03:11;98430.59;;;13.24;100.00
16544;BME280;8384;47.996;7.786;2022-09-24T06:05:37;98430.84;;;13.28;100.00
16544;BME280;8384;47.996;7.786;2022-09-24T06:08:04;98431.38;;;13.30;100.00
16544;BME280;8384;47.996;7.786;2022-09-24T06:10:29;98441.50;;;13.34;100.00
16544;BME280;8384;47.996;7.786;2022-09-24T06:12:54;98436.03;;;13.29;100.00
16544;BME280;8384;47.996;7.786;2022-09-24T06:15:20;98422.03;;;13.31;100.00
16544;BME280;8384;47.996;7.786;2022-09-24T06:17:46;98445.72;;;13.22;100.00
16544;BME280;8384;47.996;7.786;2022-09-24T06:20:11;98440.22;;;13.22;100.00
16544;BME280;8384;47.996;7.786;2022-09-24T06:22:38;98432.47;;;13.29;100.00
16544;BME280;8384;47.996;7.786;2022-09-24T06:25:04;98433.09;;;13.20;100.00
16544;BME280;8384;47.996;7.786;2022-09-24T06:27:29;98449.56;;;13.20;100.00
16544;BME280;8384;47.996;7.786;2022-09-24T06:29:55;98459.66;;;13.25;100.00
16544;BME280;8384;47.996;7.786;2022-09-24T06:32:22;98448.41;;;13.27;100.00
16544;BME280;8384;47.996;7.786;2022-09-24T06:34:47;98430.81;;;13.33;100.00
16544;BME280;8384;47.996;7.786;2022-09-24T06:37:13;98460.28;;;13.57;100.00
16544;BME280;8384;47.996;7.786;2022-09-24T06:39:38;98443.31;;;13.49;100.00
16544;BME280;8384;47.996;7.786;2022-09-24T06:42:03;98435.09;;;13.49;100.00
16544;BME280;8384;47.996;7.786;2022-09-24T06:44:29;98440.53;;;13.55;100.00
16544;BME280;8384;47.996;7.786;2022-09-24T06:46:55;98447.50;;;13.71;100.00
16544;BME280;8384;47.996;7.786;2022-09-24T06:49:21;98428.53;;;13.45;100.00
16544;BME280;8384;47.996;7.786;2022-09-24T06:51:46;98424.97;;;13.40;100.00
16544;BME280;8384;47.996;7.786;2022-09-24T06:54:11;98412.66;;;13.37;100.00
16544;BME280;8384;47.996;7.786;2022-09-24T06:56:36;98453.56;;;13.68;100.00
16544;BME280;8384;47.996;7.786;2022-09-24T06:59:02;98445.16;;;13.89;100.00
16544;BME280;8384;47.996;7.786;2022-09-24T07:01:27;98436.44;;;13.82;100.00
16544;BME280;8384;47.996;7.786;2022-09-24T07:03:52;98439.03;;;13.68;100.00
16544;BME280;8384;47.996;7.786;2022-09-24T07:06:18;98438.59;;;13.55;100.00
16544;BME280;8384;47.996;7.786;2022-09-24T07:08:43;98462.38;;;13.65;100.00
16544;BME280;8384;47.996;7.786;2022-09-24T07:11:08;98448.66;;;13.65;100.00
16544;BME280;8384;47.996;7.786;2022-09-24T07:13:34;98451.22;;;13.56;100.00
16544;BME280;8384;47.996;7.786;2022-09-24T07:15:59;98459.41;;;13.61;100.00
16544;BME280;8384;47.996;7.786;2022-09-24T07:18:25;98476.53;;;13.83;100.00
16544;BME280;8384;47.996;7.786;2022-09-24T07:20:52;98476.50;;;13.88;100.00
16544;BME280;8384;47.996;7.786;2022-09-24T07:23:18;98458.94;;;13.84;100.00
16544;BME280;8384;47.996;7.786;2022-09-24T07:25:43;98477.78;;;13.95;100.00
16544;BME280;8384;47.996;7.786;2022-09-24T07:28:10;98478.69;;;13.86;100.00
16544;BME280;8384;47.996;7.786;2022-09-24T07:30:37;98489.84;;;14.00;100.00
16544;BME280;8384;47.996;7.786;2022-09-24T07:33:03;98481.72;;;14.14;100.00
16544;BME280;8384;47.996;7.786;2022-09-24T07:35:29;98469.53;;;14.20;100.00
16544;BME280;8384;47.996;7.786;2022-09-24T07:37:56;98474.28;;;14.38;100.00
16544;BME280;8384;47.996;7.786;2022-09-24T07:40:22;98474.72;;;14.46;100.00
16544;BME280;8384;47.996;7.786;2022-09-24T07:42:48;98469.47;;;14.49;100.00
16544;BME280;8384;47.996;7.786;2022-09-24T07:45:13;98471.22;;;14.64;100.00
16544;BME280;8384;47.996;7.786;2022-09-24T07:47:41;98459.03;;;14.70;98.75
16544;BME280;8384;47.996;7.786;2022-09-24T07:50:07;98476.53;;;14.80;97.06
16544;BME280;8384;47.996;7.786;2022-09-24T07:52:32;98466.72;;;14.49;97.73
16544;BME280;8384;47.996;7.786;2022-09-24T07:54:57;98476.13;;;14.67;96.82
16544;BME280;8384;47.996;7.786;2022-09-24T07:57:22;98478.19;;;14.57;97.01
16544;BME280;8384;47.996;7.786;2022-09-24T07:59:48;98484.19;;;14.59;97.21
16544;BME280;8384;47.996;7.786;2022-09-24T08:02:16;98462.41;;;14.43;98.06
16544;BME280;8384;47.996;7.786;2022-09-24T08:04:42;98477.72;;;14.74;96.96
16544;BME280;8384;47.996;7.786;2022-09-24T08:07:09;98479.16;;;14.66;96.88
16544;BME280;8384;47.996;7.786;2022-09-24T08:09:35;98458.69;;;14.77;96.50
16544;BME280;8384;47.996;7.786;2022-09-24T08:12:00;98452.59;;;14.99;95.07
16544;BME280;8384;47.996;7.786;2022-09-24T08:14:26;98453.78;;;15.12;92.55
16544;BME280;8384;47.996;7.786;2022-09-24T08:16:51;98467.19;;;15.19;91.97
16544;BME280;8384;47.996;7.786;2022-09-24T08:19:16;98475.38;;;14.86;95.36
16544;BME280;8384;47.996;7.786;2022-09-24T08:21:42;98467.53;;;14.74;93.94
16544;BME280;8384;47.996;7.786;2022-09-24T08:24:07;98487.53;;;14.80;94.82
16544;BME280;8384;47.996;7.786;2022-09-24T08:26:32;98471.06;;;14.55;96.21
16544;BME280;8384;47.996;7.786;2022-09-24T08:28:58;98494.03;;;14.89;94.17
16544;BME280;8384;47.996;7.786;2022-09-24T08:31:23;98430.41;;;14.72;92.43
16544;BME280;8384;47.996;7.786;2022-09-24T08:33:48;98477.59;;;15.03;93.80
16544;BME280;8384;47.996;7.786;2022-09-24T08:36:15;98480.69;;;14.96;96.79
16544;BME280;8384;47.996;7.786;2022-09-24T08:38:40;98477.94;;;14.96;94.46
16544;BME280;8384;47.996;7.786;2022-09-24T08:46:38;98480.50;;;15.31;89.59
16544;BME280;8384;47.996;7.786;2022-09-24T08:49:44;98488.25;;;15.10;90.21
16544;BME280;8384;47.996;7.786;2022-09-24T08:55:30;98473.81;;;14.99;91.16
16544;BME280;8384;47.996;7.786;2022-09-24T09:00:30;98480.19;;;15.33;90.16
16544;BME280;8384;47.996;7.786;2022-09-24T09:03:06;98479.66;;;15.50;90.79
16544;BME280;8384;47.996;7.786;2022-09-24T09:05:46;98464.97;;;15.54;87.10
16544;BME280;8384;47.996;7.786;2022-09-24T09:10:53;98470.78;;;15.53;87.03
16544;BME280;8384;47.996;7.786;2022-09-24T09:13:27;98485.03;;;15.74;86.59
16544;BME280;8384;47.996;7.786;2022-09-24T09:16:20;98495.81;;;15.70;85.49
16544;BME280;8384;47.996;7.786;2022-09-24T09:18:49;98497.59;;;15.80;85.60
16544;BME280;8384;47.996;7.786;2022-09-24T09:24:24;98506.13;;;15.65;86.19
16544;BME280;8384;47.996;7.786;2022-09-24T09:26:54;98507.31;;;15.58;85.23
16544;BME280;8384;47.996;7.786;2022-09-24T09:29:24;98509.22;;;15.77;84.91
16544;BME280;8384;47.996;7.786;2022-09-24T09:32:14;98508.03;;;15.64;86.37
16544;BME280;8384;47.996;7.786;2022-09-24T09:35:10;98502.97;;;15.71;86.89
16544;BME280;8384;47.996;7.786;2022-09-24T09:37:48;98512.09;;;15.53;87.99
16544;BME280;8384;47.996;7.786;2022-09-24T09:42:50;98500.63;;;15.65;87.63
16544;BME280;8384;47.996;7.786;2022-09-24T09:45:29;98499.53;;;15.47;86.95
16544;BME280;8384;47.996;7.786;2022-09-24T09:47:57;98497.03;;;15.31;86.52
16544;BME280;8384;47.996;7.786;2022-09-24T09:50:30;98514.72;;;15.77;86.27
16544;BME280;8384;47.996;7.786;2022-09-24T09:52:59;98487.78;;;15.22;83.60
16544;BME280;8384;47.996;7.786;2022-09-24T09:55:29;98429.09;;;15.07;83.84
16544;BME280;8384;47.996;7.786;2022-09-24T10:00:39;98490.59;;;15.17;84.86
16544;BME280;8384;47.996;7.786;2022-09-24T10:03:04;98514.47;;;15.59;85.97
16544;BME280;8384;47.996;7.786;2022-09-24T10:05:30;98522.31;;;15.85;84.67
16544;BME280;8384;47.996;7.786;2022-09-24T10:07:55;98506.97;;;15.79;83.16
16544;BME280;8384;47.996;7.786;2022-09-24T10:10:27;98517.78;;;15.75;83.55
16544;BME280;8384;47.996;7.786;2022-09-24T10:13:06;98517.91;;;15.84;83.47
16544;BME280;8384;47.996;7.786;2022-09-24T10:15:50;98506.03;;;15.70;82.86
16544;BME280;8384;47.996;7.786;2022-09-24T10:18:16;98515.56;;;15.78;83.92
16544;BME280;8384;47.996;7.786;2022-09-24T10:20:45;98498.94;;;15.50;83.90
16544;BME280;8384;47.996;7.786;2022-09-24T10:23:18;98507.44;;;15.67;85.37
16544;BME280;8384;47.996;7.786;2022-09-24T10:25:58;98511.69;;;15.79;85.97
16544;BME280;8384;47.996;7.786;2022-09-24T10:28:24;98511.28;;;16.18;84.89
16544;BME280;8384;47.996;7.786;2022-09-24T10:31:16;98491.13;;;16.04;85.46
16544;BME280;8384;47.996;7.786;2022-09-24T10:33:44;98504.22;;;16.12;83.26
16544;BME280;8384;47.996;7.786;2022-09-24T10:36:19;98492.09;;;16.41;79.80
16544;BME280;8384;47.996;7.786;2022-09-24T10:38:44;98496.06;;;16.35;79.52
16544;BME280;8384;47.996;7.786;2022-09-24T10:41:27;98497.59;;;16.55;78.83
16544;BME280;8384;47.996;7.786;2022-09-24T10:43:54;98496.69;;;16.32;78.16
16544;BME280;8384;47.996;7.786;2022-09-24T10:46:54;98497.28;;;16.57;77.90
16544;BME280;8384;47.996;7.786;2022-09-24T10:55:29;98473.41;;;16.38;76.43
16544;BME280;8384;47.996;7.786;2022-09-24T10:58:20;98483.38;;;16.76;75.02
16544;BME280;8384;47.996;7.786;2022-09-24T11:03:45;98477.28;;;16.51;76.84
16544;BME280;8384;47.996;7.786;2022-09-24T11:06:44;98473.34;;;16.80;76.23
16544;BME280;8384;47.996;7.786;2022-09-24T11:09:27;98461.50;;;17.30;74.83
16544;BME280;8384;47.996;7.786;2022-09-24T11:12:13;98455.47;;;17.51;72.58
16544;BME280;8384;47.996;7.786;2022-09-24T11:15:15;98454.34;;;18.06;69.30
16544;BME280;8384;47.996;7.786;2022-09-24T11:20:47;98465.91;;;17.86;68.42
16544;BME280;8384;47.996;7.786;2022-09-24T11:23:28;98462.28;;;17.99;66.38
16544;BME280;8384;47.996;7.786;2022-09-24T11:26:25;98474.31;;;18.35;64.80
16544;BME280;8384;47.996;7.786;2022-09-24T11:29:12;98460.22;;;17.82;65.74
16544;BME280;8384;47.996;7.786;2022-09-24T11:32:16;98452.44;;;17.84;65.95
16544;BME280;8384;47.996;7.786;2022-09-24T11:34:59;98453.22;;;18.16;66.02
16544;BME280;8384;47.996;7.786;2022-09-24T11:37:51;98448.81;;;17.83;67.25
16544;BME280;8384;47.996;7.786;2022-09-24T11:53:54;98442.13;;;18.48;66.33
16544;BME280;8384;47.996;7.786;2022-09-24T11:56:29;98410.13;;;17.83;68.07
16544;BME280;8384;47.996;7.786;2022-09-24T11:59:15;98434.56;;;18.80;65.38
16544;BME280;8384;47.996;7.786;2022-09-24T12:01:47;98417.31;;;19.00;63.68
16544;BME280;8384;47.996;7.786;2022-09-24T12:04:17;98420.53;;;18.85;64.05
16544;BME280;8384;47.996;7.786;2022-09-24T12:06:45;98431.59;;;18.67;65.25
16544;BME280;8384;47.996;7.786;2022-09-24T12:09:33;98404.28;;;19.01;62.08
16544;BME280;8384;47.996;7.786;2022-09-24T12:12:14;98433.72;;;19.67;60.27
16544;BME280;8384;47.996;7.786;2022-09-24T12:15:13;98414.50;;;19.36;61.21
16544;BME280;8384;47.996;7.786;2022-09-24T12:17:54;98399.66;;;19.49;61.11
16544;BME280;8384;47.996;7.786;2022-09-24T12:20:26;98408.34;;;19.12;62.65
16544;BME280;8384;47.996;7.786;2022-09-24T12:22:56;98422.97;;;19.57;61.48
16544;BME280;8384;47.996;7.786;2022-09-24T12:25:26;98418.91;;;19.37;61.02
16544;BME280;8384;47.996;7.786;2022-09-24T12:27:53;98402.94;;;19.33;60.54
16544;BME280;8384;47.996;7.786;2022-09-24T12:30:39;98425.03;;;19.86;57.91
16544;BME280;8384;47.996;7.786;2022-09-24T12:33:57;98416.63;;;18.86;60.98
16544;BME280;8384;47.996;7.786;2022-09-24T12:36:40;98412.41;;;19.15;57.35
16544;BME280;8384;47.996;7.786;2022-09-24T12:39:11;98403.91;;;18.67;56.36
16544;BME280;8384;47.996;7.786;2022-09-24T12:41:43;98380.31;;;18.79;57.73
16544;BME280;8384;47.996;7.786;2022-09-24T12:51:42;98395.97;;;18.17;61.56
16544;BME280;8384;47.996;7.786;2022-09-24T12:57:23;98394.47;;;18.02;62.77
16544;BME280;8384;47.996;7.786;2022-09-24T13:02:45;98386.66;;;18.04;62.27
16544;BME280;8384;47.996;7.786;2022-09-24T13:05:26;98364.56;;;17.72;65.00
16544;BME280;8384;47.996;7.786;2022-09-24T13:08:01;98377.44;;;17.86;64.24
16544;BME280;8384;47.996;7.786;2022-09-24T13:10:31;98365.63;;;17.62;65.26
16544;BME280;8384;47.996;7.786;2022-09-24T13:12:58;98382.53;;;17.61;65.79
16544;BME280;8384;47.996;7.786;2022-09-24T13:15:34;98381.56;;;17.34;66.33
16544;BME280;8384;47.996;7.786;2022-09-24T13:18:16;98380.72;;;17.56;65.95
16544;BME280;8384;47.996;7.786;2022-09-24T13:20:43;98359.25;;;17.53;66.88
16544;BME280;8384;47.996;7.786;2022-09-24T13:25:56;98353.31;;;17.68;65.01
16544;BME280;8384;47.996;7.786;2022-09-24T13:28:28;98349.34;;;17.52;63.91
16544;BME280;8384;47.996;7.786;2022-09-24T13:31:01;98366.38;;;17.45;63.92
16544;BME280;8384;47.996;7.786;2022-09-24T13:33:38;98376.28;;;17.78;64.09
16544;BME280;8384;47.996;7.786;2022-09-24T13:39:02;98363.47;;;17.82;63.40
16544;BME280;8384;47.996;7.786;2022-09-24T13:41:47;98367.63;;;17.71;61.75
16544;BME280;8384;47.996;7.786;2022-09-24T13:44:22;98339.47;;;17.68;61.47
16544;BME280;8384;47.996;7.786;2022-09-24T13:46:58;98342.53;;;17.58;61.75
16544;BME280;8384;47.996;7.786;2022-09-24T13:49:24;98330.81;;;17.61;61.29
16544;BME280;8384;47.996;7.786;2022-09-24T13:54:47;98327.00;;;18.29;58.11
16544;BME280;8384;47.996;7.786;2022-09-24T13:57:25;98345.41;;;19.39;54.57
16544;BME280;8384;47.996;7.786;2022-09-24T14:02:37;98334.50;;;19.34;53.73
16544;BME280;8384;47.996;7.786;2022-09-24T14:05:06;98347.91;;;18.62;54.67
16544;BME280;8384;47.996;7.786;2022-09-24T14:07:39;98338.94;;;18.65;56.43
16544;BME280;8384;47.996;7.786;2022-09-24T14:10:12;98341.16;;;19.42;53.35
16544;BME280;8384;47.996;7.786;2022-09-24T14:12:39;98338.22;;;20.25;51.49
16544;BME280;8384;47.996;7.786;2022-09-24T14:15:17;98334.59;;;20.96;47.46
16544;BME280;8384;47.996;7.786;2022-09-24T14:17:54;98339.78;;;21.19;47.51
16544;BME280;8384;47.996;7.786;2022-09-24T14:20:20;98340.53;;;21.41;45.06
16544;BME280;8384;47.996;7.786;2022-09-24T14:22:46;98333.38;;;21.06;45.02
16544;BME280;8384;47.996;7.786;2022-09-24T14:25:16;98312.88;;;21.45;44.30
16544;BME280;8384;47.996;7.786;2022-09-24T14:27:44;98330.09;;;21.96;43.30
16544;BME280;8384;47.996;7.786;2022-09-24T14:30:26;98341.22;;;21.04;45.06
16544;BME280;8384;47.996;7.786;2022-09-24T14:32:55;98333.09;;;22.03;42.59
16544;BME280;8384;47.996;7.786;2022-09-24T14:35:37;98332.50;;;22.23;43.29
16544;BME280;8384;47.996;7.786;2022-09-24T14:38:06;98321.28;;;20.90;46.22
16544;BME280;8384;47.996;7.786;2022-09-24T14:40:52;98326.34;;;20.15;48.28